Time;durP1;ratioP1;P1;durP2;ratioP2;P2;SDS_P1;SDS_P2;PMS_P1;PMS_P2;Temp;Humidity;BMP_temperature;BMP_pressure;BME280_temperature;BME280_humidity;BME280_pressure;Samples;Min_cycle;Max_cycle;Signal;HPM_P1;HPM_P2
2022/05/17 00:01:09;;;;;;;4.13;3.70;;;13.20;27.50;;;;;;5102599;28;34670;-76
2022/05/17 00:03:35;;;;;;;4.88;3.45;;;13.10;27.50;;;;;;5102242;28;34741;-75
2022/05/17 00:06:01;;;;;;;4.13;3.35;;;13.20;27.60;;;;;;5103464;28;33974;-76
2022/05/17 00:08:27;;;;;;;4.30;3.38;;;13.20;27.70;;;;;;5120330;27;34129;-77
2022/05/17 00:10:53;;;;;;;4.60;3.30;;;13.10;27.80;;;;;;5120146;27;34123;-76
2022/05/17 00:13:19;;;;;;;6.47;3.42;;;13.10;27.90;;;;;;5102758;28;34202;-77
2022/05/17 00:15:51;;;;;;;3.97;3.50;;;13.10;27.90;;;;;;5103216;28;35101;-77
2022/05/17 00:18:19;;;;;;;5.03;3.22;;;13.10;28.30;;;;;;5085058;28;34152;-76
2022/05/17 00:20:46;;;;;;;7.45;3.60;;;13.00;27.80;;;;;;5085135;28;34249;-77
2022/05/17 00:23:15;;;;;;;3.97;3.10;;;13.00;27.80;;;;;;5085352;28;34396;-77
2022/05/17 00:25:42;;;;;;;3.53;3.15;;;12.90;27.90;;;;;;5085061;28;35837;-77
2022/05/17 00:28:08;;;;;;;3.33;2.85;;;12.90;28.00;;;;;;5085435;28;34174;-76
2022/05/17 00:30:34;;;;;;;4.32;2.97;;;12.80;27.80;;;;;;5102121;28;34252;-76
2022/05/17 00:33:00;;;;;;;4.03;3.35;;;12.80;27.80;;;;;;5105784;27;34300;-77
2022/05/17 00:35:27;;;;;;;6.70;3.20;;;12.70;27.90;;;;;;5106681;28;35200;-77
2022/05/17 00:37:53;;;;;;;3.70;3.25;;;12.70;28.00;;;;;;5089148;28;34178;-77
2022/05/17 00:40:19;;;;;;;3.33;3.03;;;12.60;28.10;;;;;;5105963;28;34090;-77
2022/05/17 00:42:45;;;;;;;3.88;3.47;;;12.60;28.10;;;;;;5105713;28;34328;-77
2022/05/17 00:45:11;;;;;;;3.60;3.13;;;12.60;28.30;;;;;;5105115;28;35943;-77
2022/05/17 00:47:43;;;;;;;7.32;2.92;;;12.60;28.20;;;;;;5088242;28;34064;-77
2022/05/17 00:50:32;;;;;;;3.17;2.83;;;12.50;28.80;;;;;;5123201;27;34141;-77
2022/05/17 00:53:04;;;;;;;3.28;2.97;;;12.50;29.60;;;;;;5089011;28;33985;-77
2022/05/17 00:55:36;;;;;;;3.47;3.17;;;12.40;28.50;;;;;;5088399;28;35575;-77
2022/05/17 00:58:23;;;;;;;4.07;3.40;;;12.40;28.60;;;;;;5088389;28;34190;-77
2022/05/17 01:01:02;;;;;;;4.57;3.67;;;12.30;29.40;;;;;;5106565;28;34573;-77
2022/05/17 01:03:45;;;;;;;4.00;3.35;;;12.20;28.70;;;;;;5105086;28;34578;-77
2022/05/17 01:06:12;;;;;;;4.25;3.13;;;12.20;28.30;;;;;;5088018;28;35984;-77
2022/05/17 01:08:38;;;;;;;3.97;3.58;;;12.20;28.40;;;;;;5105223;28;34093;-77
2022/05/17 01:11:04;;;;;;;8.48;3.70;;;12.10;28.40;;;;;;5122878;27;34004;-77
2022/05/17 01:16:11;;;;;;;8.02;3.20;;;12.10;28.70;;;;;;5119120;27;34593;-76
2022/05/17 01:18:41;;;;;;;7.22;3.58;;;12.00;28.70;;;;;;5104913;28;34102;-77
2022/05/17 01:21:09;;;;;;;5.32;3.65;;;12.00;28.90;;;;;;5088549;28;34437;-77
2022/05/17 01:23:35;;;;;;;5.72;3.35;;;12.00;29.10;;;;;;5088167;28;34159;-77
2022/05/17 01:26:02;;;;;;;3.97;3.50;;;11.90;29.10;;;;;;5122263;27;34841;-77
2022/05/17 01:28:31;;;;;;;3.60;3.15;;;11.90;29.20;;;;;;5106759;28;34103;-77
2022/05/17 01:31:03;;;;;;;3.63;2.88;;;11.90;30.10;;;;;;5088410;28;34197;-77
2022/05/17 01:33:31;;;;;;;5.38;3.50;;;11.90;29.40;;;;;;5105549;28;34119;-77
2022/05/17 01:35:57;;;;;;;3.47;3.17;;;11.90;29.40;;;;;;5104010;27;36412;-77
2022/05/17 01:38:23;;;;;;;4.90;3.03;;;11.90;29.40;;;;;;5088205;28;34167;-77
2022/05/17 01:40:49;;;;;;;3.60;3.05;;;11.80;29.40;;;;;;5104762;28;34167;-77
2022/05/17 01:43:15;;;;;;;8.10;3.60;;;11.80;29.40;;;;;;5104677;27;34034;-76
2022/05/17 01:45:41;;;;;;;3.67;3.08;;;11.80;29.40;;;;;;5103559;28;35543;-77
2022/05/17 01:48:07;;;;;;;4.50;3.35;;;11.80;29.70;;;;;;5122044;27;34348;-77
2022/05/17 01:50:33;;;;;;;4.60;3.28;;;11.80;29.80;;;;;;5122236;27;34157;-77
2022/05/17 01:52:59;;;;;;;6.22;3.45;;;11.80;29.80;;;;;;5087721;28;34130;-77
2022/05/17 01:55:25;;;;;;;6.53;3.58;;;11.80;29.80;;;;;;5105562;28;34889;-77
2022/05/17 01:57:51;;;;;;;4.25;3.35;;;11.70;29.70;;;;;;5121716;27;34209;-77
2022/05/17 02:00:20;;;;;;;7.10;3.13;;;11.70;29.90;;;;;;5121991;27;34213;-78
2022/05/17 02:02:46;;;;;;;4.00;3.30;;;11.70;30.00;;;;;;5087207;28;33997;-77
2022/05/17 02:05:12;;;;;;;6.07;3.10;;;11.70;29.80;;;;;;5086955;28;36766;-77
2022/05/17 02:07:38;;;;;;;5.00;3.50;;;11.60;29.80;;;;;;5105530;27;34149;-77
2022/05/17 02:10:05;;;;;;;5.35;2.75;;;11.60;30.00;;;;;;5105523;28;34119;-78
2022/05/17 02:12:31;;;;;;;5.65;3.25;;;11.60;30.10;;;;;;5087568;28;34171;-78
2022/05/17 02:14:57;;;;;;;3.92;2.63;;;11.50;30.10;;;;;;5086989;28;36352;-77
2022/05/17 02:17:23;;;;;;;3.53;3.22;;;11.50;30.10;;;;;;5103883;28;34517;-78
2022/05/17 02:19:49;;;;;;;3.20;2.90;;;11.40;30.00;;;;;;5104338;28;34474;-77
2022/05/17 02:22:14;;;;;;;4.97;3.28;;;11.40;30.10;;;;;;5104292;28;34197;-77
2022/05/17 02:24:40;;;;;;;3.83;3.10;;;11.40;30.00;;;;;;5086809;28;36310;-77
2022/05/17 02:27:06;;;;;;;3.00;2.70;;;11.30;30.10;;;;;;5086755;28;34099;-78
2022/05/17 02:29:32;;;;;;;4.57;2.88;;;11.30;30.30;;;;;;5087060;28;34154;-77
2022/05/17 02:31:59;;;;;;;4.20;3.10;;;11.30;30.40;;;;;;5109739;27;34488;-77
2022/05/17 02:34:26;;;;;;;3.78;2.80;;;11.30;30.50;;;;;;5100573;28;35191;-77
2022/05/17 02:36:52;;;;;;;3.25;2.92;;;11.30;30.60;;;;;;5104744;28;34162;-77
2022/05/17 02:39:18;;;;;;;4.80;3.20;;;11.20;30.50;;;;;;5087245;28;34139;-78
2022/05/17 02:41:43;;;;;;;3.70;3.17;;;11.20;30.50;;;;;;5104037;28;34167;-78
2022/05/17 02:44:09;;;;;;;4.15;3.00;;;11.20;30.40;;;;;;5105091;28;34375;-77
2022/05/17 02:46:35;;;;;;;6.88;3.00;;;11.10;30.50;;;;;;5104812;28;34042;-78
2022/05/17 02:49:04;;;;;;;4.50;2.95;;;11.10;30.50;;;;;;5103487;28;34207;-77
2022/05/17 02:51:30;;;;;;;5.05;2.92;;;11.10;30.60;;;;;;5105322;28;34329;-78
2022/05/17 02:53:56;;;;;;;3.45;2.95;;;11.00;30.40;;;;;;5104461;28;34159;-77
2022/05/17 02:56:22;;;;;;;3.47;3.00;;;11.00;30.40;;;;;;5103661;28;34168;-77
2022/05/17 02:58:48;;;;;;;3.25;2.95;;;11.00;30.40;;;;;;5086856;28;34123;-77
2022/05/17 03:01:14;;;;;;;3.45;3.15;;;11.00;30.40;;;;;;5086828;28;34294;-77
2022/05/17 03:03:42;;;;;;;3.95;2.95;;;11.00;30.50;;;;;;5120530;27;36480;-78
2022/05/17 03:06:10;;;;;;;4.25;2.92;;;10.90;30.60;;;;;;5104007;28;34091;-77
2022/05/17 03:08:37;;;;;;;5.95;3.20;;;10.90;30.70;;;;;;5086340;28;34264;-77
2022/05/17 03:11:05;;;;;;;3.30;3.00;;;10.90;30.60;;;;;;5086755;28;34569;-77
2022/05/17 03:13:31;;;;;;;3.67;3.20;;;10.90;30.70;;;;;;5102999;28;35632;-78
2022/05/17 03:15:57;;;;;;;4.22;3.38;;;10.90;30.70;;;;;;5086209;28;34110;-77
2022/05/17 03:18:23;;;;;;;5.47;3.10;;;10.80;30.80;;;;;;5086173;28;34133;-77
2022/05/17 03:20:49;;;;;;;3.22;2.85;;;10.80;30.90;;;;;;5103389;28;34412;-77
2022/05/17 03:23:15;;;;;;;3.40;3.00;;;10.80;30.80;;;;;;5086258;28;36699;-78
2022/05/17 03:25:40;;;;;;;4.13;3.05;;;10.80;30.90;;;;;;5086125;28;34162;-77
2022/05/17 03:28:07;;;;;;;4.15;3.53;;;10.80;30.90;;;;;;5103171;28;34203;-78
2022/05/17 03:30:33;;;;;;;4.40;3.30;;;10.80;30.90;;;;;;5104485;28;34740;-77
2022/05/17 03:32:59;;;;;;;4.15;3.40;;;10.80;31.00;;;;;;5104290;28;34217;-77
2022/05/17 03:35:25;;;;;;;2.95;2.45;;;10.70;30.90;;;;;;5085939;28;34437;-77
2022/05/17 03:37:51;;;;;;;3.45;3.15;;;10.70;30.90;;;;;;5103835;28;34070;-77
2022/05/17 03:40:17;;;;;;;4.50;3.30;;;10.70;30.90;;;;;;5104298;28;34034;-78
2022/05/17 03:42:43;;;;;;;3.40;3.10;;;10.70;31.10;;;;;;5086000;28;35999;-78
2022/05/17 03:45:10;;;;;;;4.18;3.13;;;10.70;31.10;;;;;;5086204;28;33990;-77
2022/05/17 03:47:36;;;;;;;4.28;3.20;;;10.70;31.30;;;;;;5085796;28;34105;-77
2022/05/17 03:50:04;;;;;;;4.75;3.00;;;10.70;31.30;;;;;;5085845;28;34448;-78
2022/05/17 03:52:31;;;;;;;3.38;3.03;;;10.70;31.30;;;;;;5102813;28;35680;-78
2022/05/17 03:54:58;;;;;;;5.03;2.97;;;10.70;31.50;;;;;;5085868;28;34147;-78
2022/05/17 03:57:25;;;;;;;4.07;3.25;;;10.70;31.50;;;;;;5086068;28;34006;-78
2022/05/17 03:59:52;;;;;;;3.47;3.17;;;10.80;31.70;;;;;;5085707;28;34626;-78
2022/05/17 04:02:18;;;;;;;3.97;3.20;;;10.80;32.00;;;;;;5085999;28;36089;-78
2022/05/17 04:04:44;;;;;;;4.03;3.17;;;10.80;31.90;;;;;;5085940;28;34531;-78
2022/05/17 04:07:10;;;;;;;4.65;3.85;;;10.80;32.00;;;;;;5087025;28;34296;-78
2022/05/17 04:09:36;;;;;;;3.80;3.00;;;10.90;32.20;;;;;;5123518;27;34374;-77
2022/05/17 04:12:03;;;;;;;5.03;3.35;;;11.00;32.10;;;;;;5088985;28;35469;-78
2022/05/17 04:14:29;;;;;;;5.13;3.47;;;11.00;32.20;;;;;;5107435;28;34159;-78
2022/05/17 04:16:55;;;;;;;5.30;2.97;;;11.00;32.20;;;;;;5107154;28;34122;-77
2022/05/17 04:19:21;;;;;;;4.97;3.20;;;11.10;32.30;;;;;;5088960;28;34099;-78
2022/05/17 04:21:48;;;;;;;5.07;3.28;;;11.10;32.30;;;;;;5088716;28;35934;-78
2022/05/17 04:24:14;;;;;;;5.25;3.58;;;11.20;32.30;;;;;;5107822;28;34093;-77
2022/05/17 04:26:41;;;;;;;4.70;3.35;;;11.30;32.40;;;;;;5089042;28;34033;-77
2022/05/17 04:29:08;;;;;;;5.95;3.65;;;11.30;32.50;;;;;;5107088;28;34146;-78
2022/05/17 04:31:34;;;;;;;5.07;3.63;;;11.30;32.60;;;;;;5088904;28;35705;-78
2022/05/17 04:34:00;;;;;;;3.25;2.90;;;11.40;32.60;;;;;;5089000;28;34102;-78
2022/05/17 04:36:26;;;;;;;4.53;3.42;;;11.50;32.60;;;;;;5088922;28;34182;-78
2022/05/17 04:38:52;;;;;;;3.75;3.35;;;11.60;32.60;;;;;;5088675;28;34310;-77
2022/05/17 04:41:18;;;;;;;3.60;3.30;;;11.60;32.60;;;;;;5106099;28;36257;-78
2022/05/17 04:43:44;;;;;;;3.40;2.97;;;11.70;32.60;;;;;;5106111;28;34181;-78
2022/05/17 04:46:11;;;;;;;4.20;3.05;;;11.80;32.50;;;;;;5107576;28;34225;-78
2022/05/17 04:48:37;;;;;;;6.20;3.65;;;11.90;32.60;;;;;;5106808;28;33984;-78
2022/05/17 04:51:08;;;;;;;5.88;3.33;;;11.90;32.60;;;;;;5087917;28;35944;-78
2022/05/17 04:53:35;;;;;;;4.05;3.60;;;12.10;33.20;;;;;;5088624;28;34416;-77
2022/05/17 04:56:02;;;;;;;4.40;3.50;;;12.10;32.70;;;;;;5106901;28;34051;-77
2022/05/17 04:58:28;;;;;;;4.65;3.80;;;12.20;32.60;;;;;;5106627;28;33984;-77
2022/05/17 05:00:54;;;;;;;4.78;3.60;;;12.30;32.60;;;;;;5088666;28;36092;-78
2022/05/17 05:03:20;;;;;;;5.53;3.58;;;12.40;32.60;;;;;;5088815;28;34115;-78
2022/05/17 05:05:47;;;;;;;7.22;3.72;;;12.50;32.70;;;;;;5122539;27;34300;-78
2022/05/17 05:08:13;;;;;;;5.88;4.13;;;12.60;32.60;;;;;;5088703;28;34236;-78
2022/05/17 05:10:39;;;;;;;4.68;4.10;;;12.70;33.40;;;;;;5088467;28;36038;-77
2022/05/17 05:13:05;;;;;;;5.65;4.70;;;12.80;32.80;;;;;;5088468;28;34154;-78
2022/05/17 05:15:31;;;;;;;5.93;4.75;;;12.90;32.80;;;;;;5105466;28;34278;-78
2022/05/17 05:17:58;;;;;;;5.93;4.95;;;13.10;32.80;;;;;;5104895;27;34364;-78
2022/05/17 05:20:24;;;;;;;7.20;5.50;;;13.20;32.70;;;;;;5121896;27;36405;-78
2022/05/17 05:22:50;;;;;;;7.30;5.43;;;13.30;32.60;;;;;;5122360;27;34227;-78
2022/05/17 05:25:16;;;;;;;5.80;5.18;;;13.50;32.60;;;;;;5122541;27;34008;-78
2022/05/17 05:27:42;;;;;;;6.60;5.13;;;13.60;32.60;;;;;;5088074;28;34150;-78
2022/05/17 05:30:11;;;;;;;5.82;4.80;;;13.80;32.40;;;;;;5088080;28;35892;-78
2022/05/17 05:32:37;;;;;;;6.57;4.57;;;13.90;32.30;;;;;;5104749;27;34142;-78
2022/05/17 05:35:03;;;;;;;4.93;4.00;;;14.00;32.10;;;;;;5087898;28;34161;-77
2022/05/17 05:37:30;;;;;;;4.20;3.80;;;14.10;32.10;;;;;;5105385;28;34179;-78
2022/05/17 05:39:56;;;;;;;5.40;4.20;;;14.10;32.00;;;;;;5121943;27;35604;-77
2022/05/17 05:42:22;;;;;;;7.80;5.28;;;14.20;32.10;;;;;;5104743;28;34289;-77
2022/05/17 05:44:48;;;;;;;5.97;4.57;;;14.30;32.10;;;;;;5104543;28;34170;-77
2022/05/17 05:47:13;;;;;;;5.68;4.50;;;14.40;32.10;;;;;;5088279;28;34225;-77
2022/05/17 05:49:39;;;;;;;5.43;4.13;;;14.40;32.10;;;;;;5104198;28;36912;-77
2022/05/17 05:52:06;;;;;;;4.32;3.67;;;14.50;32.20;;;;;;5087777;28;34357;-77
2022/05/17 05:54:32;;;;;;;5.20;4.50;;;14.60;32.20;;;;;;5104373;27;34265;-77
2022/05/17 05:57:00;;;;;;;7.20;4.75;;;14.70;32.20;;;;;;5104476;27;34562;-77
2022/05/17 05:59:28;;;;;;;6.18;5.05;;;14.70;32.50;;;;;;5087441;28;35715;-77
2022/05/17 06:01:54;;;;;;;9.18;5.18;;;14.80;32.50;;;;;;5105830;28;34311;-77
2022/05/17 06:04:20;;;;;;;6.85;5.13;;;14.80;32.50;;;;;;5087740;28;34219;-76
2022/05/17 06:06:46;;;;;;;6.03;4.88;;;14.80;32.50;;;;;;5087504;28;34294;-77
2022/05/17 06:09:12;;;;;;;5.72;5.03;;;14.80;32.70;;;;;;5087028;28;35859;-77
2022/05/17 06:11:38;;;;;;;5.72;4.70;;;14.80;32.80;;;;;;5086952;28;33994;-77
2022/05/17 06:14:04;;;;;;;5.35;4.85;;;14.80;32.80;;;;;;5087796;28;34167;-77
2022/05/17 06:16:30;;;;;;;8.73;5.28;;;14.90;33.00;;;;;;5104342;28;34114;-76
2022/05/17 06:18:56;;;;;;;5.32;4.80;;;14.90;33.00;;;;;;5086989;28;36404;-76
2022/05/17 06:21:22;;;;;;;6.38;4.93;;;14.90;33.00;;;;;;5105147;28;34312;-77
2022/05/17 06:23:48;;;;;;;8.25;5.72;;;14.90;33.10;;;;;;5086957;28;33763;-76
2022/05/17 06:26:14;;;;;;;7.03;5.32;;;15.00;33.10;;;;;;5087275;28;34273;-77
2022/05/17 06:28:40;;;;;;;6.80;5.13;;;15.00;33.20;;;;;;5103580;28;35689;-77
2022/05/17 06:31:06;;;;;;;6.75;5.43;;;15.10;33.30;;;;;;5105278;27;34380;-77
2022/05/17 06:33:31;;;;;;;7.25;6.03;;;15.20;33.30;;;;;;5121049;27;34475;-77
2022/05/17 06:35:57;;;;;;;7.93;5.75;;;15.20;33.40;;;;;;5086765;28;34658;-77
2022/05/17 06:38:24;;;;;;;9.32;6.55;;;15.20;33.40;;;;;;5086571;28;36316;-77
2022/05/17 06:40:50;;;;;;;7.35;5.95;;;15.30;33.40;;;;;;5087000;28;34226;-78
2022/05/17 06:43:15;;;;;;;6.97;5.72;;;15.30;33.50;;;;;;5086729;28;34382;-76
2022/05/17 06:45:43;;;;;;;6.40;5.28;;;15.40;33.40;;;;;;5104131;27;34402;-76
2022/05/17 06:48:09;;;;;;;8.05;5.63;;;15.40;33.40;;;;;;5086815;28;35571;-77
2022/05/17 06:50:36;;;;;;;7.85;5.97;;;15.50;33.40;;;;;;5086501;27;34273;-77
2022/05/17 06:53:04;;;;;;;6.78;5.40;;;15.50;33.30;;;;;;5103710;28;34005;-77
2022/05/17 06:55:31;;;;;;;8.25;5.93;;;15.60;33.30;;;;;;5086850;28;34121;-76
2022/05/17 06:57:57;;;;;;;9.82;6.25;;;15.70;33.40;;;;;;5104409;28;34199;-77
2022/05/17 07:00:23;;;;;;;11.05;5.82;;;15.70;33.30;;;;;;5086453;28;34284;-77
2022/05/17 07:02:49;;;;;;;6.20;5.45;;;15.80;33.20;;;;;;5086073;28;34778;-76
2022/05/17 07:05:15;;;;;;;6.10;5.25;;;15.90;33.20;;;;;;5121331;27;34347;-77
2022/05/17 07:07:41;;;;;;;10.57;4.85;;;16.00;33.10;;;;;;5102932;28;36772;-76
2022/05/17 07:15:31;;;;;;;7.00;4.95;;;16.30;32.90;;;;;;5104164;27;34292;-77
2022/05/17 07:18:00;;;;;;;6.38;4.72;;;16.50;32.60;;;;;;5085721;28;35667;-76
2022/05/17 07:20:27;;;;;;;6.45;5.07;;;16.60;32.40;;;;;;5086437;28;34147;-76
2022/05/17 07:22:53;;;;;;;5.55;4.60;;;16.70;32.40;;;;;;5085840;28;34141;-76
2022/05/17 07:25:19;;;;;;;6.80;4.47;;;16.80;32.20;;;;;;5104800;28;34072;-76
2022/05/17 07:27:45;;;;;;;7.70;4.78;;;16.80;32.00;;;;;;5103982;28;35220;-76
2022/05/17 07:30:12;;;;;;;5.90;4.95;;;16.90;31.90;;;;;;5120289;27;34098;-75
2022/05/17 07:32:38;;;;;;;5.78;4.53;;;16.90;31.90;;;;;;5102767;28;34247;-75
2022/05/17 07:35:06;;;;;;;6.53;4.90;;;16.90;32.00;;;;;;5103257;28;34229;-75
2022/05/17 07:37:33;;;;;;;6.07;4.97;;;16.90;32.10;;;;;;5085654;28;35617;-75
2022/05/17 07:39:59;;;;;;;5.18;4.68;;;17.00;31.90;;;;;;5102967;28;34166;-76
2022/05/17 07:42:26;;;;;;;5.97;5.03;;;17.00;31.90;;;;;;5103544;28;34039;-75
2022/05/17 07:44:52;;;;;;;6.72;4.72;;;17.10;32.00;;;;;;5085815;28;34220;-75
2022/05/17 07:47:18;;;;;;;8.85;5.10;;;17.20;31.80;;;;;;5085635;28;35533;-75
2022/05/17 07:49:44;;;;;;;6.07;4.60;;;17.30;31.80;;;;;;5102154;28;34952;-76
2022/05/17 07:52:11;;;;;;;6.35;4.53;;;17.50;31.70;;;;;;5086017;28;34175;-76
2022/05/17 07:54:38;;;;;;;10.57;5.43;;;17.70;31.60;;;;;;5085400;28;34077;-76
2022/05/17 07:57:06;;;;;;;6.90;4.53;;;17.90;31.10;;;;;;5102250;28;36016;-76
2022/05/17 07:59:32;;;;;;;5.40;4.57;;;18.00;30.80;;;;;;5085641;28;34190;-76
2022/05/17 08:01:58;;;;;;;5.60;4.60;;;18.20;30.50;;;;;;5103533;28;34120;-77
2022/05/17 08:04:24;;;;;;;8.60;4.93;;;18.40;30.20;;;;;;5103032;28;34176;-75
2022/05/17 08:06:50;;;;;;;6.47;4.90;;;18.60;30.00;;;;;;5101986;28;36725;-76
2022/05/17 08:09:17;;;;;;;5.28;4.68;;;18.90;29.50;;;;;;5119592;27;34077;-76
2022/05/17 08:11:43;;;;;;;5.25;4.53;;;19.10;29.10;;;;;;5103336;28;34172;-76
2022/05/17 08:14:09;;;;;;;7.20;4.70;;;19.30;28.80;;;;;;5085865;28;34066;-77
2022/05/17 08:16:35;;;;;;;5.40;3.92;;;19.50;28.50;;;;;;5101919;28;35643;-76
2022/05/17 08:19:01;;;;;;;5.18;3.78;;;19.70;28.20;;;;;;5102456;28;34173;-76
2022/05/17 08:21:27;;;;;;;4.32;3.92;;;19.90;28.00;;;;;;5103477;28;34079;-76
2022/05/17 08:23:53;;;;;;;5.35;3.78;;;20.10;27.80;;;;;;5120076;27;34228;-76
2022/05/17 08:29:00;;;;;;;6.35;4.03;;;20.20;27.10;;;;;;5102601;28;33974;-75
2022/05/17 08:31:26;;;;;;;6.80;4.18;;;20.30;27.10;;;;;;5104120;28;34101;-75
2022/05/17 08:33:52;;;;;;;5.18;3.90;;;20.40;27.00;;;;;;5102420;28;34234;-76
2022/05/17 08:39:02;;;;;;;4.63;4.10;;;20.50;26.90;;;;;;5102439;28;34417;-76
2022/05/17 08:41:37;;;;;;;5.55;3.67;;;20.70;26.70;;;;;;5119471;27;34205;-74
2022/05/17 08:44:09;;;;;;;6.60;3.67;;;20.90;27.30;;;;;;5084871;28;34127;-76
2022/05/17 08:47:06;;;;;;;8.55;4.22;;;21.10;26.40;;;;;;5084938;28;35506;-75
2022/05/17 08:49:55;;;;;;;5.80;3.88;;;21.30;26.50;;;;;;5103041;27;34316;-76
2022/05/17 08:52:24;;;;;;;6.30;4.22;;;21.50;25.40;;;;;;5102093;28;34094;-75
2022/05/17 08:54:56;;;;;;;6.90;4.05;;;21.80;25.00;;;;;;5105356;27;34265;-75
2022/05/17 08:57:42;;;;;;;9.23;4.28;;;22.20;24.80;;;;;;5087601;28;36444;-75
2022/05/17 09:00:21;;;;;;;5.82;4.05;;;22.70;23.00;;;;;;5088430;28;34379;-75
2022/05/17 09:02:56;;;;;;;5.30;4.20;;;23.00;21.20;;;;;;5106474;28;34065;-76
2022/05/17 09:05:53;;;;;;;8.88;4.22;;;23.20;21.90;;;;;;5105804;28;34265;-76
2022/05/17 09:08:46;;;;;;;5.18;4.18;;;23.50;20.90;;;;;;5106343;28;34441;-76
2022/05/17 09:11:37;;;;;;;5.32;4.03;;;23.80;20.40;;;;;;5102773;28;34242;-76
2022/05/17 09:14:16;;;;;;;5.15;4.30;;;24.20;19.30;;;;;;5102849;27;34255;-76
2022/05/17 09:16:46;;;;;;;6.65;3.95;;;24.60;18.50;;;;;;5088954;28;34527;-76
2022/05/17 09:19:15;;;;;;;6.63;4.20;;;24.90;17.80;;;;;;5104876;28;35889;-76
2022/05/17 09:21:43;;;;;;;4.28;3.88;;;25.10;18.90;;;;;;5088524;28;34112;-75
2022/05/17 09:24:13;;;;;;;7.03;3.65;;;25.30;18.50;;;;;;5122799;27;34549;-76
2022/05/17 09:26:45;;;;;;;3.95;3.45;;;25.50;17.40;;;;;;5106116;28;34324;-75
2022/05/17 09:29:18;;;;;;;4.38;3.85;;;25.60;18.30;;;;;;5088065;28;35660;-76
2022/05/17 09:31:58;;;;;;;4.40;3.83;;;25.80;15.90;;;;;;5087732;28;34222;-76
2022/05/17 09:34:34;;;;;;;5.65;4.38;;;26.10;16.30;;;;;;5104098;28;34089;-76
2022/05/17 09:37:17;;;;;;;5.30;3.78;;;26.50;16.30;;;;;;5122289;27;34039;-76
2022/05/17 09:39:48;;;;;;;4.95;3.65;;;26.90;12.90;;;;;;5088476;28;35806;-76
2022/05/17 09:42:29;;;;;;;5.40;3.92;;;27.10;15.40;;;;;;5105081;28;34414;-77
2022/05/17 09:44:56;;;;;;;5.28;3.45;;;27.30;15.40;;;;;;5103773;28;34315;-76
2022/05/17 09:47:28;;;;;;;3.85;3.33;;;27.30;15.90;;;;;;5105138;28;34101;-75
2022/05/17 09:52:44;;;;;;;5.15;3.35;;;27.60;15.00;;;;;;5105763;28;34133;-75
2022/05/17 09:55:27;;;;;;;4.43;3.20;;;27.90;14.40;;;;;;5089279;28;34258;-77
2022/05/17 09:58:10;;;;;;;4.65;3.55;;;28.30;12.90;;;;;;5087987;28;34269;-75
2022/05/17 10:00:51;;;;;;;6.68;3.20;;;28.50;10.20;;;;;;5105989;28;35220;-75
2022/05/17 10:03:28;;;;;;;4.43;3.05;;;28.50;8.90;;;;;;5087943;27;34100;-76
2022/05/17 10:06:02;;;;;;;4.80;3.17;;;28.30;10.00;;;;;;5106213;28;34326;-78
2022/05/17 10:08:37;;;;;;;3.80;2.67;;;28.30;11.50;;;;;;5123223;27;34240;-76
2022/05/17 10:11:13;;;;;;;3.28;2.63;;;28.20;12.20;;;;;;5104643;28;35778;-75
2022/05/17 10:13:59;;;;;;;4.30;3.00;;;28.40;11.90;;;;;;5121784;27;34199;-76
2022/05/17 10:16:36;;;;;;;4.82;2.75;;;28.60;9.80;;;;;;5106274;28;34223;-76
2022/05/17 10:19:15;;;;;;;4.45;3.05;;;28.90;10.60;;;;;;5106373;28;34353;-75
2022/05/17 10:22:01;;;;;;;3.92;3.10;;;29.30;11.30;;;;;;5087572;28;35625;-77
2022/05/17 10:24:42;;;;;;;5.13;3.00;;;29.40;8.80;;;;;;5131038;27;34154;-78
2022/05/17 10:27:32;;;;;;;3.28;2.88;;;29.60;9.60;;;;;;5087296;28;34109;-76
2022/05/17 10:30:07;;;;;;;3.10;2.80;;;29.60;7.90;;;;;;5105364;27;34079;-77
2022/05/17 10:32:43;;;;;;;3.25;2.95;;;29.60;10.00;;;;;;5088357;28;36056;-77
2022/05/17 10:35:35;;;;;;;3.28;2.90;;;29.60;9.30;;;;;;5086855;28;34161;-76
2022/05/17 10:38:12;;;;;;;4.18;2.97;;;29.80;9.10;;;;;;5073959;28;34080;-76
2022/05/17 10:40:45;;;;;;;2.58;2.35;;;29.80;7.60;;;;;;5106220;28;34335;-76
2022/05/17 10:43:25;;;;;;;2.50;2.30;;;30.00;10.70;;;;;;5106149;28;35033;-76
2022/05/17 10:46:18;;;;;;;5.88;2.42;;;30.20;9.10;;;;;;5088410;28;34226;-75
2022/05/17 10:49:07;;;;;;;3.10;2.47;;;30.30;8.10;;;;;;5108301;27;34155;-75
2022/05/17 10:52:04;;;;;;;8.90;2.40;;;30.50;7.80;;;;;;5105486;28;34130;-75
2022/05/17 10:54:54;;;;;;;2.78;2.30;;;30.60;5.90;;;;;;5105212;28;35501;-75
2022/05/17 10:57:34;;;;;;;2.83;1.83;;;30.70;6.90;;;;;;5087324;28;33612;-76
2022/05/17 11:00:18;;;;;;;5.22;2.15;;;30.60;6.70;;;;;;5088076;28;34319;-75
2022/05/17 11:03:04;;;;;;;5.82;2.20;;;30.60;5.60;;;;;;5071116;28;34284;-75
2022/05/17 11:05:59;;;;;;;2.50;2.00;;;30.60;5.10;;;;;;5121253;27;36376;-74
2022/05/17 11:08:53;;;;;;;2.55;1.92;;;30.60;4.20;;;;;;5083181;28;34501;-76
2022/05/17 11:11:37;;;;;;;1.65;1.55;;;30.60;4.90;;;;;;5085926;28;34356;-77
2022/05/17 11:14:12;;;;;;;3.45;1.40;;;30.50;2.80;;;;;;5083978;28;34116;-75
2022/05/17 11:16:52;;;;;;;3.85;1.63;;;30.60;4.00;;;;;;5081610;28;35648;-74
2022/05/17 11:19:38;;;;;;;2.60;1.30;;;30.80;5.20;;;;;;5051037;28;34209;-75
2022/05/17 11:22:15;;;;;;;3.22;1.55;;;31.00;3.00;;;;;;5068242;28;34166;-75
2022/05/17 11:25:04;;;;;;;2.13;1.30;;;31.10;4.60;;;;;;5050901;28;34117;-75
2022/05/17 11:27:54;;;;;;;1.42;1.10;;;31.10;2.60;;;;;;5100383;28;35812;-74
2022/05/17 11:30:44;;;;;;;3.13;1.10;;;31.10;1.00;;;;;;5100002;27;34175;-76
2022/05/17 11:33:30;;;;;;;2.00;1.25;;;31.30;1.00;;;;;;5084580;28;34490;-75
2022/05/17 11:36:00;;;;;;;5.68;1.92;;;31.50;1.00;;;;;;5100632;28;34222;-76
2022/05/17 11:38:45;;;;;;;2.28;1.10;;;31.50;3.00;;;;;;5104213;27;36153;-76
2022/05/17 11:41:21;;;;;;;1.13;1.00;;;31.50;1.00;;;;;;5106165;28;34126;-74
2022/05/17 11:44:10;;;;;;;1.20;1.05;;;31.60;1.00;;;;;;5086738;28;34033;-75
2022/05/17 11:46:42;;;;;;;1.75;1.10;;;31.60;1.70;;;;;;5073251;28;33975;-75
2022/05/17 11:49:28;;;;;;;16.95;1.80;;;31.70;1.00;;;;;;5086586;28;36422;-76
2022/05/17 11:52:19;;;;;;;6.13;1.30;;;31.60;1.00;;;;;;5087021;28;34258;-74
2022/05/17 11:54:48;;;;;;;1.75;1.02;;;31.70;1.00;;;;;;5088334;28;34104;-74
2022/05/17 11:57:54;;;;;;;1.30;0.90;;;31.90;1.50;;;;;;5087315;28;34118;-75
2022/05/17 12:00:39;;;;;;;1.42;1.02;;;31.90;1.00;;;;;;5090186;28;35980;-75
2022/05/17 12:03:05;;;;;;;0.88;0.73;;;32.10;1.00;;;;;;5088006;28;34297;-76
2022/05/17 12:05:56;;;;;;;0.93;0.85;;;32.20;1.70;;;;;;5087728;28;34320;-76
2022/05/17 12:08:32;;;;;;;0.80;0.80;;;32.20;1.00;;;;;;5074165;28;34201;-75
2022/05/17 12:11:20;;;;;;;2.35;0.88;;;32.10;1.00;;;;;;5087917;28;34349;-79
2022/05/17 12:14:09;;;;;;;1.00;1.00;;;32.10;1.00;;;;;;5105122;28;34076;-76
2022/05/17 12:16:38;;;;;;;0.98;0.88;;;32.00;1.00;;;;;;5069836;28;34084;-75
2022/05/17 12:19:16;;;;;;;2.65;1.10;;;32.00;1.00;;;;;;5087360;28;34276;-76
2022/05/17 12:21:58;;;;;;;3.10;0.88;;;32.00;1.00;;;;;;5088011;28;36263;-77
2022/05/17 12:24:55;;;;;;;1.17;0.90;;;31.90;1.00;;;;;;5087012;28;34284;-77
2022/05/17 12:27:31;;;;;;;1.05;0.90;;;31.80;1.00;;;;;;5086896;28;34191;-76
2022/05/17 12:33:07;;;;;;;0.98;0.80;;;31.50;1.00;;;;;;5094783;27;34306;-76
2022/05/17 12:35:33;;;;;;;1.88;1.10;;;31.60;1.00;;;;;;5090231;28;34286;-75
2022/05/17 12:37:59;;;;;;;1.23;1.02;;;31.70;1.00;;;;;;5107394;28;34276;-76
2022/05/17 12:43:13;;;;;;;2.70;0.80;;;32.20;1.00;;;;;;5092106;28;34125;-75
2022/05/17 12:45:47;;;;;;;2.25;0.90;;;32.30;1.00;;;;;;5090263;28;34156;-76
2022/05/17 12:48:36;;;;;;;3.35;0.80;;;32.30;1.00;;;;;;5107532;27;34477;-75
2022/05/17 12:51:05;;;;;;;1.25;0.95;;;32.20;1.00;;;;;;5076823;28;34161;-74
2022/05/17 12:53:48;;;;;;;1.00;0.85;;;31.90;1.00;;;;;;5108825;28;34354;-74
2022/05/17 12:56:33;;;;;;;1.17;1.05;;;31.50;1.00;;;;;;5090316;28;34088;-74
2022/05/17 12:59:03;;;;;;;2.13;1.10;;;31.20;1.00;;;;;;5089982;28;34170;-74
2022/05/17 13:01:41;;;;;;;1.30;0.88;;;31.10;1.00;;;;;;5089958;28;34529;-75
2022/05/17 13:04:12;;;;;;;1.50;1.08;;;31.20;1.00;;;;;;5109058;28;34657;-74
2022/05/17 13:06:44;;;;;;;3.72;1.27;;;31.30;1.00;;;;;;5073127;28;34244;-76
2022/05/17 13:09:26;;;;;;;1.92;1.00;;;31.30;1.00;;;;;;5108411;28;34304;-74
2022/05/17 13:11:56;;;;;;;2.08;1.25;;;31.40;1.00;;;;;;5090162;28;34069;-74
2022/05/17 13:14:27;;;;;;;2.08;1.42;;;31.40;1.00;;;;;;5074557;28;35852;-75
2022/05/17 13:17:01;;;;;;;1.30;1.20;;;31.40;1.00;;;;;;5088988;28;34261;-73
2022/05/17 13:19:27;;;;;;;4.32;1.45;;;31.20;1.00;;;;;;5090154;28;34150;-73
2022/05/17 13:21:55;;;;;;;1.67;1.00;;;31.00;1.00;;;;;;5072031;28;34492;-76
2022/05/17 13:24:42;;;;;;;1.48;1.00;;;30.80;1.00;;;;;;5094098;27;35810;-74
2022/05/17 13:27:30;;;;;;;1.10;1.00;;;30.80;1.00;;;;;;5129372;27;34417;-75
2022/05/17 13:30:01;;;;;;;1.95;1.00;;;30.80;1.00;;;;;;5079138;27;34214;-74